• Join FlightAware (Why Join?)
  • Login
  • US Flag 
12:20AM EDT


 

Airport Tracker/Info


-or-


 

Live Flight TrackerFlight Track Log ✈ N90CJ ✈ 13-Aug-2013 ✈ KADS - KMSN

Flight Track Log - Related Links

Times and Time Zones

All times are in EDT time to prevent confusion due to time zone crossing. See the N90CJ flight status page for this flight to view local times or setup timezone preferences in your user account.

Time Position Orientation Groundspeed Altitude Reporting Facility
EDT Latitude Longitude Course Direction KTS MPH feet Rate Location/Type
06:37PM 32.9500 -96.8333 90° East 157 181 1,000  Level Dallas / Fort Worth TRACON
06:38PM 32.9500 -96.7833 90° East 254 292 2,100 1,140 Climbing Dallas / Fort Worth TRACON
06:39PM 33.0000 -96.7167 48° Northeast 265 305 3,000 2,160 Climbing Dallas / Fort Worth TRACON
06:40PM 33.0500 -96.7000 16° North 230 265 6,300 2,520 Climbing Dallas / Fort Worth TRACON
06:42PM 33.1431 -96.8156 314° West 277 319 10,300 2,220 Climbing Fort Worth Center
06:43PM 33.2139 -96.8250 354° North 248 285 12,700 2,220 Climbing Fort Worth Center
06:44PM 33.2869 -96.8194 North 254 292 14,800 1,980 Climbing Fort Worth Center
06:45PM 33.3600 -96.8117 North 254 292 16,700 1,620 Climbing Fort Worth Center
06:46PM 33.4311 -96.8186 355° North 254 292 18,100 1,500 Climbing Fort Worth Center
06:47PM 33.5103 -96.7881 18° North 264 304 19,800 1,500 Climbing Fort Worth Center
06:48PM 33.5831 -96.7403 29° Northeast 288 331 21,200 1,440 Climbing Fort Worth Center
06:49PM 33.6642 -96.6872 29° Northeast 314 361 22,700 1,440 Climbing Fort Worth Center
06:50PM 33.7369 -96.6417 27° Northeast 320 368 24,100 1,440 Climbing Fort Worth Center
06:51PM 33.8158 -96.5908 28° Northeast 326 375 25,600 1,440 Climbing Fort Worth Center
06:52PM 33.8969 -96.5378 28° Northeast 326 375 27,000 1,200 Climbing Fort Worth Center
06:53PM 33.9781 -96.4842 29° Northeast 326 375 28,000 1,020 Climbing Fort Worth Center
06:54PM 34.0589 -96.4308 29° Northeast 326 375 29,100 960 Climbing Fort Worth Center
06:55PM 34.1439 -96.3619 34° Northeast 327 376 30,000 900 Climbing Fort Worth Center
06:56PM 34.2247 -96.2958 34° Northeast 333 383 31,000 1,140 Climbing Fort Worth Center
06:57PM 34.3056 -96.2294 34° Northeast 340 391 32,300 1,020 Climbing Fort Worth Center
06:58PM 34.3842 -96.1653 34° Northeast 346 398 33,100 900 Climbing Fort Worth Center
06:59PM 34.4650 -96.0986 34° Northeast 346 398 34,100 1,140 Climbing Fort Worth Center
07:00PM 34.5475 -96.0319 34° Northeast 346 398 35,400 1,200 Climbing Fort Worth Center
07:01PM 34.6242 -95.9675 35° Northeast 346 398 36,600 960 Climbing Fort Worth Center
07:02PM 34.7047 -95.9106 30° Northeast 346 398 37,400 900 Climbing Fort Worth Center
07:03PM 34.7856 -95.8536 30° Northeast 334 384 38,400 900 Climbing Fort Worth Center
07:04PM 34.8681 -95.7989 29° Northeast 329 379 39,300 780 Climbing Fort Worth Center
07:05PM 34.9531 -95.7442 28° Northeast 334 384 40,000 720 Climbing Fort Worth Center
07:06PM 35.0378 -95.6867 29° Northeast 334 384 40,800 480 Climbing Fort Worth Center
07:07PM 35.1119 -95.6319 31° Northeast 334 384 41,000 60 Climbing Fort Worth Center
07:09PM 35.3208 -95.4922 29° Northeast 362 417 41,000  Level Memphis Center
07:10PM 35.4156 -95.4242 30° Northeast 372 428 41,000  Level Memphis Center
07:11PM 35.5119 -95.3586 29° Northeast 378 435 41,000  Level Memphis Center
07:13PM 35.6311 -95.2717 31° Northeast 400 460 41,000  Level Kansas City Center
07:14PM 35.7278 -95.2039 30° Northeast 400 460 41,000  Level Kansas City Center
07:15PM 35.8242 -95.1361 30° Northeast 400 460 41,000  Level Kansas City Center
07:16PM 35.9392 -95.0558 29° Northeast 398 458 41,000  Level Kansas City Center
07:17PM 36.0353 -94.9875 30° Northeast 399 459 41,000  Level Kansas City Center
07:18PM 36.1317 -94.9194 30° Northeast 400 460 41,000  Level Kansas City Center
07:19PM 36.2286 -94.8506 30° Northeast 402 463 41,000  Level Kansas City Center
07:20PM 36.3264 -94.7811 30° Northeast 405 466 41,000  Level Kansas City Center
07:21PM 36.4256 -94.7097 30° Northeast 410 472 41,000  Level Kansas City Center
07:22PM 36.5447 -94.6256 30° Northeast 412 474 41,000  Level Kansas City Center
07:23PM 36.6450 -94.5528 30° Northeast 415 478 41,000  Level Kansas City Center
07:24PM 36.7439 -94.4819 30° Northeast 413 475 41,000  Level Kansas City Center
07:25PM 36.8436 -94.4100 30° Northeast 413 475 41,000  Level Kansas City Center
07:26PM 36.9433 -94.3392 30° Northeast 413 475 41,000  Level Kansas City Center
07:27PM 37.0433 -94.2664 30° Northeast 415 478 41,000  Level Kansas City Center
07:28PM 37.1431 -94.1942 30° Northeast 414 476 41,000  Level Kansas City Center
07:29PM 37.2428 -94.1203 31° Northeast 415 478 41,000  Level Kansas City Center
07:30PM 37.3558 -94.0381 30° Northeast 417 480 41,000  Level Kansas City Center
07:31PM 37.4561 -93.9633 31° Northeast 416 479 41,000  Level Kansas City Center
07:32PM 37.5556 -93.8894 30° Northeast 415 478 41,000  Level Kansas City Center
07:33PM 37.6556 -93.8150 31° Northeast 414 476 41,000  Level Kansas City Center
07:34PM 37.7561 -93.7408 30° Northeast 415 478 41,000  Level Kansas City Center
07:35PM 37.8761 -93.6508 31° Northeast 415 478 41,000  Level Kansas City Center
07:36PM 37.9756 -93.5769 30° Northeast 414 476 41,000  Level Kansas City Center
07:37PM 38.0753 -93.5019 31° Northeast 415 478 41,000  Level Kansas City Center
07:38PM 38.1750 -93.4267 31° Northeast 414 476 41,000  Level Kansas City Center
07:39PM 38.2733 -93.3519 31° Northeast 411 473 41,000  Level Kansas City Center
07:40PM 38.3733 -93.2775 30° Northeast 412 474 41,000  Level Kansas City Center
07:41PM 38.4728 -93.2017 31° Northeast 413 475 41,000  Level Kansas City Center
07:42PM 38.5739 -93.1236 31° Northeast 419 482 41,000  Level Kansas City Center
07:43PM 38.6764 -93.0442 31° Northeast 424 488 41,000  Level Kansas City Center
07:44PM 38.7781 -92.9672 31° Northeast 424 488 41,000  Level Kansas City Center
07:45PM 38.8778 -92.8900 31° Northeast 419 482 41,000  Level Kansas City Center
07:46PM 38.9989 -92.7944 32° Northeast 421 484 41,000  Level Kansas City Center
07:47PM 39.0906 -92.7256 30° Northeast 423 487 41,000  Level Kansas City Center
07:49PM 39.2003 -92.6400 31° Northeast 419 482 41,000  Level Kansas City Center
07:50PM 39.2878 -92.5703 32° Northeast 420 483 41,000  Level Kansas City Center
07:51PM 39.4061 -92.4789 31° Northeast 418 481 41,000  Level Kansas City Center
07:52PM 39.5053 -92.4017 31° Northeast 419 482 41,000  Level Kansas City Center
07:53PM 39.6033 -92.3239 31° Northeast 419 482 41,000  Level Kansas City Center
07:54PM 39.7022 -92.2458 31° Northeast 419 482 41,000  Level Kansas City Center
07:55PM 39.8028 -92.1642 32° Northeast 425 489 41,000  Level Kansas City Center
07:56PM 39.9011 -92.0858 31° Northeast 424 488 41,000  Level Kansas City Center
07:57PM 40.0197 -91.9914 31° Northeast 422 486 41,000  Level Kansas City Center
07:58PM 40.1186 -91.9108 32° Northeast 424 488 41,000  Level Kansas City Center
07:59PM 40.2169 -91.8317 32° Northeast 422 486 41,000  Level Kansas City Center
08:00PM 40.3156 -91.7519 32° Northeast 422 486 41,000  Level Kansas City Center
08:01PM 40.4314 -91.6561 32° Northeast 418 481 41,000  Level Kansas City Center
08:02PM 40.5283 -91.5781 31° Northeast 414 476 41,000  Level Kansas City Center
08:03PM 40.6217 -91.5022 32° Northeast 405 466 41,000  Level Kansas City Center
08:04PM 40.6975 -91.4417 31° Northeast 400 460 41,000 -60 Level Chicago Center
08:05PM 40.7922 -91.3644 32° Northeast 404 465 40,900 -840 Descending Chicago Center
08:06PM 40.8833 -91.2872 33° Northeast 401 461 39,300 -1,560 Descending Chicago Center
08:07PM 40.9764 -91.2117 32° Northeast 394 453 37,700 -1,560 Descending Chicago Center
08:08PM 41.0703 -91.1317 33° Northeast 397 457 36,100 -1,740 Descending Chicago Center
08:09PM 41.1869 -91.0364 32° Northeast 407 468 34,200 -1,740 Descending Chicago Center
08:10PM 41.2842 -90.9539 33° Northeast 413 475 32,600 -1,560 Descending Chicago Center
08:11PM 41.3797 -90.8725 33° Northeast 408 470 31,000 -1,560 Descending Chicago Center
08:12PM 41.4717 -90.7956 32° Northeast 393 452 29,400 -1,560 Descending Chicago Center
08:13PM 41.5689 -90.7128 32° Northeast 405 466 27,800 -1,380 Descending Chicago Center
08:14PM 41.6603 -90.6336 33° Northeast 398 458 26,600 -1,140 Descending Chicago Center
08:15PM 41.7519 -90.5556 32° Northeast 389 448 25,500 -1,020 Descending Chicago Center
08:16PM 41.8578 -90.4647 33° Northeast 386 444 24,500 -960 Descending Chicago Center
08:17PM 41.9464 -90.3881 33° Northeast 384 442 23,600 -1,020 Descending Chicago Center
08:18PM 42.0303 -90.3164 32° Northeast 372 428 22,500 -1,020 Descending Chicago Center
08:19PM 42.1131 -90.2447 33° Northeast 360 414 21,500 -1,020 Descending Chicago Center
08:20PM 42.2128 -90.1589 33° Northeast 359 413 20,400 -1,020 Descending Chicago Center
08:21PM 42.2939 -90.0881 33° Northeast 352 405 19,500 -1,260 Descending Chicago Center
08:22PM 42.3728 -90.0178 33° Northeast 344 396 17,800 -1,680 Descending Chicago Center
08:23PM 42.4481 -89.9517 33° Northeast 331 381 16,100 -1,860 Descending Chicago Center
08:24PM 42.5308 -89.8781 33° Northeast 316 364 14,000 -1,980 Descending Chicago Center
08:25PM 42.6033 -89.8150 33° Northeast 310 357 12,100 -1,860 Descending Chicago Center
08:26PM 42.6722 -89.7531 33° Northeast 301 346 10,200 -1,980 Descending Chicago Center
08:27PM 42.7439 -89.6903 33° Northeast 263 303 7,900 -1,980 Descending Chicago Center
08:29PM 42.7989 -89.6431 32° Northeast 237 273 6,000 -1,860 Descending Chicago Center
08:30PM 42.8553 -89.5892 35° Northeast 243 280 4,100 -1,260 Descending Chicago Center
08:31PM 42.9139 -89.5392 32° Northeast 248 285 3,500 -300 Descending Chicago Center
08:32PM 42.9744 -89.4803 35° Northeast 233 268 3,500 -300 Level Chicago Center
08:33PM 43.0267 -89.4264 37° Northeast 233 268 3,000 -540 Descending Chicago Center
08:34PM 43.0636 -89.3919 34° Northeast 181 208 2,500 -600 Descending Chicago Center
08:35PM 43.0978 -89.3683 27° Northeast 150 173 1,800 -720 Descending Chicago Center
08:36PM 43.1272 -89.3475 27° Northeast 132 152 1,100 -720 Descending Chicago Center
08:38PM 43.1333 -89.3333 36° Northeast  Level FlightAware Approximate